首页
METAR-TAF:

METAR-TAF

机场 :

Moody Air Force Base

Valdosta, 喬治亞, 美国

纬度: 30-58N, 经度: 083-12W, 海拔: 71米

当前天气观测

该预报发布于1小时和57分钟前的18:57 UTC
风速6节,风向东转东南
温度 18°C
湿度 64%
气压 1020 hPa
能見度: 16.1公里
少量云层高于18000英尺

METAR: KVAD 131857Z AUTO 11006KT 10SM FEW180 18/11 A3012 RMK AO2 SLP202 T01760107 $

时间: 15:54 (20:54 UTC)

预报

该预报发布于3小时和54分钟前的17:00 UTC
预报有效从13日的 17点(UTC)到 14日的 23点(UTC)
风速8节,风向
能见度10公里或以上
阴天层高于7000英尺
成为
从 14日的 02点(UTC)到 14日的 03点(UTC)
风速9节,风向东转东南
能见度10公里或以上
散云层高于1000英尺
多云层高于2500英尺
阴天层高于24000英尺
成为
从 14日的 06点(UTC)到 14日的 07点(UTC)
风速9节,风向东南
能見度: 8000
多云层高于800英尺
阴天层高于2500英尺
小雨
成为
从 14日的 09点(UTC)到 14日的 10点(UTC)
风速10节,风向南转南东,有时为15节阵风
能見度: 4800
阴天层高于800英尺, 积雨云.
雨, 附近有雷暴
短暂存在
从 14日的 15点(UTC)到 14日的 20点(UTC)
风速15节,风向,有时为35节阵风
能見度: 3200
多云层高于500英尺, 积雨云.
雷暴, 雨

TAF: KVAD 131700Z 1317/1423 10008KT 9999 OVC070 QNH3008INS BECMG 1402/1403 11009KT 9999 SCT010 BKN025 OVC240 510101 QNH3006INS BECMG 1406/1407 13009KT 8000 -RA BKN008 OVC025 510051 QNH3000INS BECMG 1409/1410 15010G15KT 4800 RA VCTS OVC008CB 510051 540505 QNH2990INS TEMPO 1415/1420 17015G35KT 3200 TSRA BKN005CB TX20/1417Z TN11/1400Z

超过4000个机场的气象观测和天气预报(METAR&TAF报告)。

可查询的气象台以黄色和红色小点在地图上表示。

将鼠标移到小点上方,可查看气象台名称。

然后点击查看天气观测和预报。

如需切换地图:点击带黑十字的绿色按钮放大地图;点击带横线的绿色按钮缩小地图;或者点击绿色箭头查看邻近地区的地图。


METAR-TAF: